| time (UTC) | temp F | wind direction | speed MPH | gust MPH | rain 1hr in | rain 24hr in | rain mn in | humidity % | barometer mb |
| 20260510141832 | 47 | 289 | 14.0 | 23.0 | 0.00 | 0.07 | 0.00 | 66 | 1014.7 |
| 20260510141330 | 46 | 311 | 15.0 | 26.0 | 0.00 | 0.07 | 0.00 | 65 | 1014.6 |
| 20260510141044 | 46 | 300 | 17.0 | 26.0 | 0.00 | 0.07 | 0.00 | 66 | 1014.6 |
| 20260510140318 | 46 | 301 | 16.0 | 25.0 | 0.00 | 0.07 | 0.00 | 65 | 1014.6 |
| 20260510135812 | 45 | 282 | 15.0 | 25.0 | 0.00 | 0.07 | 0.00 | 66 | 1014.6 |
| 20260510135306 | 45 | 296 | 14.0 | 22.0 | 0.00 | 0.07 | 0.00 | 66 | 1014.6 |
| 20260510135016 | 45 | 300 | 14.0 | 22.0 | 0.00 | 0.07 | 0.00 | 67 | 1014.6 |
| 20260510134258 | 44 | 286 | 12.0 | 21.0 | 0.00 | 0.07 | 0.00 | 68 | 1014.2 |
| 20260510133758 | 44 | 301 | 11.0 | 17.0 | 0.00 | 0.07 | 0.00 | 67 | 1014.2 |
| 20260510133258 | 44 | 308 | 13.0 | 20.0 | 0.00 | 0.07 | 0.00 | 69 | 1014.2 |
| 20260510133023 | 44 | 313 | 15.0 | 22.0 | 0.00 | 0.07 | 0.00 | 71 | 1014.0 |
| 20260510132258 | 43 | 282 | 14.0 | 22.0 | 0.00 | 0.07 | 0.00 | 68 | 1014.0 |
| 20260510131758 | 43 | 286 | 12.0 | 19.0 | 0.00 | 0.07 | 0.00 | 70 | 1014.0 |
| 20260510131256 | 43 | 310 | 14.0 | 23.0 | 0.00 | 0.07 | 0.00 | 70 | 1014.0 |
| 20260510130756 | 43 | 288 | 13.0 | 23.0 | 0.00 | 0.07 | 0.00 | 70 | 1014.0 |
| 20260510130500 | 42 | 325 | 13.0 | 23.0 | 0.00 | 0.07 | 0.00 | 71 | 1014.0 |
| 20260510130450 | 42 | 295 | 12.0 | 22.0 | 0.00 | 0.07 | 0.00 | 72 | 1014.0 |
| 20260510125256 | 42 | 281 | 14.0 | 24.0 | 0.00 | 0.07 | 0.00 | 71 | 1014.0 |
| 20260510124756 | 41 | 306 | 17.0 | 24.0 | 0.00 | 0.07 | 0.00 | 72 | 1014.0 |
| 20260510124525 | 41 | 319 | 15.0 | 23.0 | 0.00 | 0.07 | 0.00 | 73 | 1013.8 |
| 20260510124016 | 41 | 300 | 12.0 | 21.0 | 0.00 | 0.07 | 0.00 | 75 | 1013.8 |
| 20260510123248 | 40 | 288 | 11.0 | 18.0 | 0.00 | 0.07 | 0.00 | 75 | 1013.8 |
| 20260510122743 | 40 | 269 | 11.0 | 17.0 | 0.00 | 0.07 | 0.00 | 78 | 1013.7 |
| 20260510122237 | 40 | 300 | 11.0 | 17.0 | 0.00 | 0.07 | 0.00 | 79 | 1013.7 |
| 20260510121732 | 39 | 278 | 10.0 | 16.0 | 0.00 | 0.07 | 0.00 | 78 | 1013.7 |
| 20260510121220 | 39 | 302 | 9.0 | 15.0 | 0.00 | 0.07 | 0.00 | 80 | 1013.6 |
| 20260510120713 | 38 | 293 | 8.0 | 13.0 | 0.00 | 0.07 | 0.00 | 80 | 1013.6 |
| 20260510120212 | 38 | 281 | 7.0 | 12.0 | 0.00 | 0.07 | 0.00 | 82 | 1013.6 |
| 20260510115706 | 37 | 266 | 7.0 | 12.0 | 0.00 | 0.07 | 0.00 | 82 | 1013.5 |
| 20260510115200 | 37 | 256 | 7.0 | 11.0 | 0.00 | 0.07 | 0.00 | 82 | 1013.5 |
| 20260510114914 | 37 | 261 | 6.0 | 11.0 | 0.00 | 0.07 | 0.00 | 83 | 1013.5 |
| 20260510114148 | 37 | 248 | 6.0 | 9.0 | 0.00 | 0.07 | 0.00 | 84 | 1013.3 |
| 20260510113637 | 36 | 238 | 6.0 | 11.0 | 0.00 | 0.07 | 0.00 | 84 | 1013.3 |
| 20260510113134 | 36 | 248 | 7.0 | 11.0 | 0.00 | 0.07 | 0.00 | 84 | 1013.3 |
| 20260510112628 | 36 | 265 | 7.0 | 10.0 | 0.00 | 0.07 | 0.00 | 84 | 1013.0 |
| 20260510112117 | 36 | 254 | 6.0 | 10.0 | 0.00 | 0.07 | 0.00 | 85 | 1013.0 |
| 20260510111616 | 35 | 248 | 6.0 | 9.0 | 0.00 | 0.07 | 0.00 | 85 | 1012.7 |
| 20260510111106 | 35 | 244 | 6.0 | 9.0 | 0.00 | 0.07 | 0.00 | 85 | 1012.7 |
| 20260510110604 | 35 | 252 | 7.0 | 9.0 | 0.00 | 0.07 | 0.00 | 85 | 1012.7 |
| 20260510110319 | 35 | 252 | 6.0 | 9.0 | 0.00 | 0.07 | 0.00 | 85 | 1012.4 |
| 20260510105550 | 35 | 248 | 6.0 | 8.0 | 0.00 | 0.07 | 0.00 | 85 | 1012.4 |
| 20260510105039 | 35 | 236 | 5.0 | 7.0 | 0.00 | 0.07 | 0.00 | 85 | 1012.4 |
| 20260510104538 | 35 | 248 | 5.0 | 7.0 | 0.00 | 0.07 | 0.00 | 85 | 1012.3 |
| 20260510104027 | 35 | 243 | 5.0 | 7.0 | 0.00 | 0.07 | 0.00 | 85 | 1012.3 |
| 20260510103749 | 35 | 256 | 6.0 | 9.0 | 0.00 | 0.07 | 0.00 | 85 | 1012.3 |
| 20260510103016 | 35 | 255 | 7.0 | 10.0 | 0.00 | 0.07 | 0.00 | 85 | 1011.9 |
| 20260510102511 | 35 | 266 | 7.0 | 13.0 | 0.00 | 0.07 | 0.00 | 84 | 1011.9 |
| 20260510101957 | 35 | 275 | 7.0 | 13.0 | 0.00 | 0.07 | 0.00 | 84 | 1011.9 |
| 20260510101456 | 35 | 256 | 6.0 | 10.0 | 0.00 | 0.07 | 0.00 | 84 | 1011.5 |
| 20260510100945 | 35 | 269 | 7.0 | 10.0 | 0.00 | 0.07 | 0.00 | 84 | 1011.5 |
| 20260510100444 | 35 | 283 | 7.0 | 10.0 | 0.00 | 0.07 | 0.00 | 84 | 1011.5 |
| 20260510095933 | 35 | 269 | 7.0 | 11.0 | 0.00 | 0.07 | 0.00 | 84 | 1011.3 |
| 20260510095432 | 35 | 261 | 7.0 | 11.0 | 0.00 | 0.07 | 0.00 | 84 | 1011.3 |
| 20260510094927 | 35 | 269 | 7.0 | 11.0 | 0.00 | 0.07 | 0.00 | 84 | 1011.3 |
| 20260510094415 | 35 | 256 | 7.0 | 13.0 | 0.00 | 0.07 | 0.00 | 83 | 1011.0 |
| 20260510093914 | 35 | 277 | 9.0 | 13.0 | 0.00 | 0.07 | 0.00 | 84 | 1011.0 |
| 20260510093408 | 35 | 296 | 9.0 | 12.0 | 0.00 | 0.07 | 0.00 | 84 | 1011.0 |
| 20260510093346 | 35 | 284 | 8.0 | 11.0 | 0.00 | 0.07 | 0.00 | 83 | 1010.8 |
| 20260510092352 | 35 | 298 | 7.0 | 10.0 | 0.00 | 0.07 | 0.00 | 83 | 1010.8 |
| 20260510091848 | 35 | 286 | 6.0 | 11.0 | 0.00 | 0.07 | 0.00 | 83 | 1010.8 |
| 20260510091338 | 35 | 306 | 7.0 | 11.0 | 0.00 | 0.07 | 0.00 | 83 | 1010.7 |
| 20260510090836 | 35 | 270 | 7.0 | 10.0 | 0.00 | 0.07 | 0.00 | 83 | 1010.7 |
| 20260510090326 | 35 | 296 | 8.0 | 10.0 | 0.00 | 0.07 | 0.00 | 84 | 1010.7 |
| 20260510085823 | 35 | 301 | 8.0 | 10.0 | 0.00 | 0.07 | 0.00 | 84 | 1010.4 |
| 20260510085317 | 35 | 297 | 8.0 | 13.0 | 0.00 | 0.07 | 0.00 | 83 | 1010.4 |
| 20260510085022 | 35 | 293 | 9.0 | 13.0 | 0.00 | 0.07 | 0.00 | 83 | 1010.4 |
| 20260510084304 | 35 | 304 | 8.0 | 11.0 | 0.00 | 0.07 | 0.00 | 83 | 1010.3 |
| 20260510083750 | 35 | 292 | 7.0 | 11.0 | 0.00 | 0.07 | 0.00 | 84 | 1010.3 |
| 20260510083248 | 35 | 284 | 6.0 | 11.0 | 0.00 | 0.07 | 0.00 | 84 | 1010.3 |
| 20260510082742 | 35 | 269 | 5.0 | 8.0 | 0.00 | 0.07 | 0.00 | 85 | 1010.2 |
| 20260510082459 | 35 | 277 | 5.0 | 8.0 | 0.00 | 0.07 | 0.00 | 84 | 1010.2 |
| 20260510081725 | 35 | 265 | 5.0 | 9.0 | 0.00 | 0.07 | 0.00 | 84 | 1010.2 |
| 20260510081220 | 35 | 275 | 5.0 | 9.0 | 0.00 | 0.07 | 0.00 | 84 | 1010.2 |
| 20260510080721 | 35 | 265 | 5.0 | 8.0 | 0.00 | 0.07 | 0.00 | 83 | 1010.2 |
| 20260510080208 | 35 | 267 | 6.0 | 8.0 | 0.00 | 0.07 | 0.00 | 84 | 1010.2 |
| 20260510075706 | 35 | 279 | 6.0 | 9.0 | 0.00 | 0.07 | 0.00 | 84 | 1009.8 |
| 20260510075155 | 35 | 288 | 6.0 | 8.0 | 0.00 | 0.07 | 0.00 | 83 | 1009.8 |
| 20260510074922 | 35 | 293 | 5.0 | 8.0 | 0.00 | 0.07 | 0.00 | 82 | 1009.8 |
| 20260510074148 | 36 | 294 | 5.0 | 7.0 | 0.00 | 0.07 | 0.00 | 82 | 1009.7 |
| 20260510073638 | 36 | 286 | 5.0 | 7.0 | 0.00 | 0.07 | 0.00 | 81 | 1009.7 |
| 20260510073136 | 36 | 297 | 6.0 | 8.0 | 0.00 | 0.07 | 0.00 | 81 | 1009.7 |
| 20260510072626 | 36 | 313 | 6.0 | 9.0 | 0.00 | 0.07 | 0.00 | 81 | 1009.6 |
| 20260510072124 | 37 | 317 | 7.0 | 9.0 | 0.00 | 0.07 | 0.00 | 81 | 1009.6 |
| 20260510071614 | 37 | 312 | 7.0 | 9.0 | 0.00 | 0.07 | 0.00 | 81 | 1009.6 |
| 20260510071111 | 37 | 298 | 8.0 | 11.0 | 0.00 | 0.07 | 0.00 | 80 | 1009.5 |
| 20260510070606 | 37 | 308 | 9.0 | 11.0 | 0.00 | 0.07 | 0.00 | 81 | 1009.5 |
| 20260510070055 | 37 | 308 | 9.0 | 12.0 | 0.00 | 0.07 | 0.00 | 80 | 1009.6 |
| 20260510065554 | 37 | 320 | 9.0 | 13.0 | 0.00 | 0.07 | 0.00 | 80 | 1009.6 |
| 20260510065043 | 37 | 308 | 9.0 | 13.0 | 0.00 | 0.07 | 0.00 | 80 | 1009.6 |
| 20260510064542 | 37 | 321 | 9.0 | 13.0 | 0.00 | 0.07 | 0.00 | 80 | 1009.4 |
| 20260510064036 | 37 | 322 | 9.0 | 13.0 | 0.00 | 0.07 | 0.00 | 80 | 1009.4 |
| 20260510063530 | 37 | 316 | 10.0 | 13.0 | 0.00 | 0.07 | 0.00 | 80 | 1009.4 |
| 20260510063247 | 37 | 326 | 10.0 | 17.0 | 0.00 | 0.07 | 0.00 | 80 | 1009.4 |
| 20260510062518 | 38 | 319 | 11.0 | 17.0 | 0.00 | 0.07 | 0.00 | 80 | 1009.4 |
| 20260510062018 | 38 | 300 | 10.0 | 13.0 | 0.00 | 0.07 | 0.00 | 80 | 1009.4 |
| 20260510061518 | 38 | 317 | 9.0 | 13.0 | 0.00 | 0.07 | 0.00 | 79 | 1009.3 |
| 20260510061018 | 38 | 313 | 9.0 | 13.0 | 0.00 | 0.07 | 0.00 | 79 | 1009.3 |
| 20260510060518 | 38 | 314 | 8.0 | 10.0 | 0.00 | 0.07 | 0.00 | 78 | 1009.3 |
| 20260510060243 | 38 | 315 | 8.0 | 10.0 | 0.00 | 0.07 | 0.00 | 78 | 1009.3 |
| 20260510055511 | 38 | 313 | 9.0 | 12.0 | 0.00 | 0.07 | 0.00 | 78 | 1009.3 |
| 20260510055006 | 38 | 307 | 9.0 | 12.0 | 0.00 | 0.07 | 0.00 | 78 | 1009.3 |
| 20260510054455 | 38 | 290 | 9.0 | 13.0 | 0.00 | 0.07 | 0.00 | 78 | 1009.2 |
| 20260510054435 | 38 | 315 | 9.0 | 13.0 | 0.00 | 0.07 | 0.00 | 78 | 1009.2 |
| 20260510053448 | 38 | 302 | 8.0 | 11.0 | 0.00 | 0.07 | 0.00 | 78 | 1009.2 |
| 20260510052938 | 39 | 316 | 7.0 | 10.0 | 0.00 | 0.07 | 0.00 | 78 | 1009.2 |
| 20260510052657 | 39 | 319 | 8.0 | 11.0 | 0.00 | 0.07 | 0.00 | 77 | 1009.2 |
| 20260510051930 | 39 | 307 | 8.0 | 11.0 | 0.00 | 0.07 | 0.00 | 77 | 1009.2 |
| 20260510051430 | 39 | 301 | 8.0 | 11.0 | 0.00 | 0.07 | 0.00 | 77 | 1008.8 |
| 20260510050930 | 40 | 338 | 8.0 | 10.0 | 0.00 | 0.07 | 0.00 | 76 | 1008.8 |
| 20260510050430 | 40 | 333 | 8.0 | 14.0 | 0.00 | 0.07 | 0.00 | 76 | 1008.8 |
| 20260510045930 | 40 | 335 | 9.0 | 15.0 | 0.00 | 0.07 | 0.00 | 76 | 1008.7 |
| 20260510045430 | 40 | 323 | 10.0 | 19.0 | 0.00 | 0.07 | 0.00 | 76 | 1008.7 |
| 20260510044930 | 41 | 341 | 9.0 | 19.0 | 0.00 | 0.07 | 0.00 | 75 | 1008.7 |
| 20260510044430 | 41 | 334 | 9.0 | 17.0 | 0.00 | 0.07 | 0.00 | 76 | 1008.7 |
| 20260510043929 | 41 | 336 | 10.0 | 17.0 | 0.00 | 0.07 | 0.00 | 76 | 1008.7 |
| 20260510043429 | 42 | 330 | 11.0 | 18.0 | 0.00 | 0.07 | 0.00 | 76 | 1008.7 |
| 20260510042930 | 42 | 326 | 10.0 | 18.0 | 0.00 | 0.07 | 0.00 | 75 | 1008.5 |
| 20260510042430 | 42 | 333 | 11.0 | 18.0 | 0.00 | 0.07 | 0.00 | 75 | 1008.5 |
| 20260510041930 | 42 | 330 | 13.0 | 20.0 | 0.00 | 0.07 | 0.00 | 75 | 1008.5 |
| 20260510041430 | 42 | 323 | 12.0 | 20.0 | 0.00 | 0.07 | 0.00 | 75 | 1008.1 |
| 20260510041147 | 43 | 319 | 10.0 | 17.0 | 0.00 | 0.07 | 0.00 | 74 | 1008.1 |
| 20260510040649 | 43 | 315 | 9.0 | 17.0 | 0.00 | 0.07 | 0.00 | 75 | 1008.1 |
| 20260510035927 | 43 | 325 | 11.0 | 18.0 | 0.00 | 0.07 | 0.07 | 74 | 1007.9 |
| 20260510035421 | 43 | 323 | 11.0 | 18.0 | 0.00 | 0.07 | 0.07 | 74 | 1007.9 |
| 20260510035127 | 43 | 311 | 9.0 | 18.0 | 0.00 | 0.07 | 0.07 | 72 | 1007.9 |
| 20260510034405 | 44 | 339 | 9.0 | 14.0 | 0.00 | 0.07 | 0.07 | 72 | 1007.6 |
| 20260510033856 | 44 | 332 | 8.0 | 15.0 | 0.00 | 0.07 | 0.07 | 71 | 1007.6 |
| 20260510033357 | 44 | 349 | 9.0 | 18.0 | 0.00 | 0.07 | 0.07 | 71 | 1007.6 |
| 20260510032856 | 44 | 319 | 10.0 | 18.0 | 0.00 | 0.07 | 0.07 | 69 | 1007.3 |
| 20260510032355 | 45 | 330 | 12.0 | 23.0 | 0.00 | 0.07 | 0.07 | 69 | 1007.3 |
| 20260510032112 | 45 | 359 | 13.0 | 23.0 | 0.00 | 0.07 | 0.07 | 69 | 1007.3 |
| 20260510031354 | 45 | 325 | 12.0 | 21.0 | 0.00 | 0.07 | 0.07 | 68 | 1007.0 |
| 20260510030854 | 45 | 321 | 10.0 | 17.0 | 0.00 | 0.07 | 0.07 | 68 | 1007.0 |
| 20260510030618 | 45 | 323 | 10.0 | 19.0 | 0.00 | 0.07 | 0.07 | 68 | 1007.0 |
| 20260510025855 | 45 | 329 | 11.0 | 19.0 | 0.00 | 0.07 | 0.07 | 68 | 1007.1 |
| 20260510025354 | 45 | 342 | 9.0 | 17.0 | 0.00 | 0.07 | 0.07 | 69 | 1007.1 |
| 20260510024855 | 45 | 315 | 8.0 | 16.0 | 0.00 | 0.07 | 0.07 | 70 | 1007.1 |
| 20260510024354 | 45 | 313 | 8.0 | 14.0 | 0.00 | 0.07 | 0.07 | 70 | 1006.5 |
| 20260510024121 | 45 | 331 | 7.0 | 14.0 | 0.00 | 0.07 | 0.07 | 70 | 1006.5 |
| 20260510023355 | 46 | 333 | 7.0 | 12.0 | 0.00 | 0.07 | 0.07 | 70 | 1006.5 |
| 20260510022854 | 46 | 0 | 8.0 | 12.0 | 0.00 | 0.07 | 0.07 | 70 | 1006.5 |
| 20260510022352 | 46 | 349 | 8.0 | 12.0 | 0.00 | 0.07 | 0.07 | 70 | 1006.5 |
| 20260510021852 | 46 | 1 | 7.0 | 11.0 | 0.00 | 0.07 | 0.07 | 70 | 1006.5 |
| 20260510021341 | 46 | 348 | 6.0 | 11.0 | 0.00 | 0.07 | 0.07 | 70 | 1006.4 |
| 20260510020836 | 46 | 336 | 6.0 | 11.0 | 0.00 | 0.07 | 0.07 | 70 | 1006.4 |
| 20260510020334 | 46 | 5 | 8.0 | 14.0 | 0.00 | 0.07 | 0.07 | 71 | 1006.4 |
| 20260510015828 | 46 | 1 | 9.0 | 14.0 | 0.00 | 0.07 | 0.07 | 70 | 1006.1 |
| 20260510015322 | 46 | 354 | 10.0 | 14.0 | 0.00 | 0.07 | 0.07 | 70 | 1006.1 |
| 20260510015034 | 47 | 356 | 10.0 | 16.0 | 0.00 | 0.07 | 0.07 | 69 | 1006.1 |
| 20260510014306 | 47 | 346 | 11.0 | 18.0 | 0.00 | 0.07 | 0.07 | 70 | 1005.9 |
| 20260510013759 | 47 | 337 | 11.0 | 18.0 | 0.00 | 0.07 | 0.07 | 70 | 1005.9 |
| 20260510013258 | 47 | 349 | 12.0 | 20.0 | 0.00 | 0.07 | 0.07 | 69 | 1005.9 |
| 20260510012752 | 47 | 316 | 12.0 | 20.0 | 0.00 | 0.07 | 0.07 | 69 | 1005.4 |
| 20260510012246 | 48 | 329 | 10.0 | 18.0 | 0.00 | 0.07 | 0.07 | 70 | 1005.4 |
| 20260510011740 | 48 | 343 | 9.0 | 14.0 | 0.00 | 0.07 | 0.07 | 69 | 1005.4 |
| 20260510011451 | 48 | 336 | 10.0 | 16.0 | 0.00 | 0.07 | 0.07 | 70 | 1005.3 |
| 20260510010724 | 48 | 346 | 10.0 | 16.0 | 0.00 | 0.07 | 0.07 | 70 | 1005.3 |
| 20260510010218 | 48 | 327 | 9.0 | 16.0 | 0.00 | 0.07 | 0.07 | 71 | 1005.3 |
| 20260510005937 | 48 | 342 | 8.0 | 15.0 | 0.00 | 0.07 | 0.07 | 70 | 1004.8 |
| 20260510005205 | 49 | 320 | 8.0 | 12.0 | 0.00 | 0.07 | 0.07 | 71 | 1004.8 |
| 20260510004706 | 49 | 345 | 10.0 | 17.0 | 0.00 | 0.07 | 0.07 | 70 | 1004.8 |
| 20260510004158 | 49 | 325 | 11.0 | 18.0 | 0.00 | 0.07 | 0.07 | 69 | 1004.4 |
| 20260510003652 | 49 | 343 | 12.0 | 24.0 | 0.00 | 0.07 | 0.07 | 69 | 1004.4 |
| 20260510003406 | 50 | 324 | 15.0 | 24.0 | 0.00 | 0.07 | 0.07 | 69 | 1004.4 |
| 20260510002634 | 50 | 325 | 15.0 | 26.0 | 0.00 | 0.07 | 0.07 | 69 | 1004.1 |
| 20260510002133 | 51 | 354 | 13.0 | 26.0 | 0.00 | 0.07 | 0.07 | 71 | 1004.1 |
| 20260510001633 | 52 | 338 | 13.0 | 24.0 | 0.00 | 0.07 | 0.07 | 71 | 1004.1 |
| 20260510001132 | 52 | 324 | 17.0 | 25.0 | 0.00 | 0.07 | 0.07 | 71 | 1003.7 |
| 20260510000630 | 53 | 348 | 19.0 | 33.0 | 0.00 | 0.07 | 0.07 | 70 | 1003.7 |
| 20260510000358 | 54 | 317 | 19.0 | 33.0 | 0.00 | 0.07 | 0.07 | 69 | 1003.7 |
| 20260509235850 | 54 | 343 | 21.0 | 32.0 | 0.00 | 0.07 | 0.07 | 69 | 1002.9 |
| 20260509235130 | 55 | 321 | 21.0 | 32.0 | 0.00 | 0.07 | 0.07 | 69 | 1002.9 |
| 20260509234630 | 55 | 302 | 18.0 | 32.0 | 0.00 | 0.07 | 0.07 | 69 | 1002.9 |
| 20260509234130 | 55 | 331 | 18.0 | 27.0 | 0.00 | 0.07 | 0.07 | 68 | 1002.2 |
| 20260509233853 | 55 | 299 | 18.0 | 27.0 | 0.00 | 0.07 | 0.07 | 68 | 1002.2 |
| 20260509233130 | 55 | 318 | 19.0 | 27.0 | 0.00 | 0.07 | 0.07 | 68 | 1002.2 |
| 20260509232901 | 55 | 315 | 19.0 | 27.0 | 0.00 | 0.07 | 0.07 | 67 | 1002.1 |
| 20260509232130 | 56 | 311 | 18.0 | 28.0 | 0.00 | 0.07 | 0.07 | 68 | 1002.1 |
| 20260509231630 | 56 | 292 | 20.0 | 28.0 | 0.00 | 0.07 | 0.07 | 69 | 1002.1 |
| 20260509231130 | 56 | 293 | 21.0 | 37.0 | 0.00 | 0.07 | 0.07 | 69 | 1002.1 |
| 20260509230630 | 56 | 284 | 19.0 | 37.0 | 0.00 | 0.07 | 0.07 | 68 | 1002.1 |
| 20260509230130 | 56 | 284 | 18.0 | 27.0 | 0.00 | 0.07 | 0.07 | 69 | 1001.3 |
| 20260509225558 | 57 | 275 | 20.0 | 30.0 | 0.00 | 0.07 | 0.07 | 70 | 1002.1 |
| 20260509225324 | 56 | 296 | 21.0 | 34.0 | 0.00 | 0.07 | 0.07 | 69 | 1002.1 |
| 20260509224554 | 56 | 287 | 21.0 | 34.0 | 0.00 | 0.07 | 0.07 | 71 | 1002.0 |
| 20260509224314 | 56 | 278 | 18.0 | 30.0 | 0.00 | 0.07 | 0.07 | 72 | 1002.0 |
| 20260509223552 | 56 | 296 | 14.0 | 30.0 | 0.00 | 0.07 | 0.07 | 74 | 1002.0 |
| 20260509223041 | 56 | 299 | 13.0 | 22.0 | 0.00 | 0.07 | 0.07 | 74 | 1001.7 |
| 20260509222537 | 56 | 283 | 14.0 | 25.0 | 0.00 | 0.07 | 0.07 | 74 | 1001.7 |
| 20260509222035 | 56 | 288 | 15.0 | 25.0 | 0.00 | 0.07 | 0.07 | 73 | 1001.7 |
| 20260509221524 | 56 | 265 | 15.0 | 25.0 | 0.00 | 0.07 | 0.07 | 75 | 1001.6 |
| 20260509221238 | 56 | 310 | 14.0 | 26.0 | 0.00 | 0.07 | 0.07 | 75 | 1001.6 |
| 20260509220505 | 57 | 279 | 13.0 | 25.0 | 0.00 | 0.07 | 0.07 | 75 | 1001.6 |
| 20260509220004 | 57 | 269 | 17.0 | 29.0 | 0.00 | 0.07 | 0.07 | 75 | 1001.4 |
| 20260509215719 | 57 | 273 | 19.0 | 29.0 | 0.00 | 0.07 | 0.07 | 73 | 1001.4 |
| 20260509214947 | 57 | 276 | 20.0 | 31.0 | 0.00 | 0.07 | 0.07 | 75 | 1001.4 |
| 20260509214447 | 57 | 265 | 20.0 | 31.0 | 0.00 | 0.07 | 0.07 | 74 | 1001.3 |
| 20260509213940 | 57 | 307 | 17.0 | 31.0 | 0.00 | 0.07 | 0.07 | 75 | 1001.3 |
| 20260509213654 | 57 | 302 | 13.0 | 26.0 | 0.00 | 0.07 | 0.07 | 78 | 1001.3 |
| 20260509212928 | 57 | 313 | 10.0 | 18.0 | 0.00 | 0.07 | 0.07 | 84 | 1001.2 |
| 20260509212645 | 57 | 268 | 9.0 | 14.0 | 0.00 | 0.07 | 0.07 | 86 | 1001.2 |
| 20260509211916 | 57 | 269 | 9.0 | 14.0 | 0.00 | 0.07 | 0.07 | 85 | 1001.2 |
| 20260509211405 | 57 | 244 | 9.0 | 12.0 | 0.00 | 0.07 | 0.07 | 86 | 1001.2 |
| 20260509210859 | 57 | 199 | 10.0 | 14.0 | 0.00 | 0.07 | 0.07 | 85 | 1001.2 |
| 20260509210356 | 57 | 229 | 10.0 | 14.0 | 0.00 | 0.07 | 0.07 | 88 | 1001.2 |
| 20260509210112 | 56 | 205 | 11.0 | 14.0 | 0.01 | 0.07 | 0.07 | 88 | 1001.4 |
| 20260509205604 | 56 | 195 | 11.0 | 18.0 | 0.06 | 0.07 | 0.07 | 89 | 1001.4 |
| 20260509204830 | 56 | 205 | 12.0 | 15.0 | 0.07 | 0.07 | 0.07 | 91 | 1001.4 |
| 20260509204329 | 55 | 186 | 12.0 | 18.0 | 0.07 | 0.07 | 0.07 | 90 | 1001.3 |
| 20260509203822 | 54 | 205 | 11.0 | 18.0 | 0.07 | 0.07 | 0.07 | 89 | 1001.3 |
| 20260509203317 | 54 | 189 | 9.0 | 14.0 | 0.07 | 0.07 | 0.07 | 91 | 1001.3 |
| 20260509202806 | 54 | 215 | 9.0 | 14.0 | 0.07 | 0.07 | 0.07 | 91 | 1001.3 |
| 20260509202259 | 54 | 215 | 11.0 | 15.0 | 0.07 | 0.07 | 0.07 | 93 | 1001.3 |
| 20260509201758 | 53 | 215 | 13.0 | 21.0 | 0.07 | 0.07 | 0.07 | 91 | 1001.3 |
| 20260509201736 | 53 | 221 | 15.0 | 22.0 | 0.07 | 0.07 | 0.07 | 90 | 1001.2 |
| 20260509200746 | 53 | 226 | 17.0 | 25.0 | 0.07 | 0.07 | 0.07 | 89 | 1001.2 |
| 20260509200240 | 53 | 254 | 20.0 | 32.0 | 0.06 | 0.06 | 0.07 | 87 | 1001.2 |
| 20260509195734 | 55 | 267 | 17.0 | 32.0 | 0.06 | 0.06 | 0.06 | 83 | 999.4 |
| 20260509195228 | 58 | 299 | 13.0 | 30.0 | 0.01 | 0.01 | 0.01 | 81 | 999.4 |
| 20260509194941 | 59 | 184 | 14.0 | 22.0 | 0.00 | 0.00 | 0.00 | 78 | 999.4 |
| 20260509194216 | 59 | 167 | 16.0 | 24.0 | 0.00 | 0.00 | 0.00 | 76 | 1000.0 |
| 20260509193928 | 60 | 163 | 18.0 | 24.0 | 0.00 | 0.00 | 0.00 | 74 | 1000.0 |
| 20260509193158 | 60 | 177 | 17.0 | 27.0 | 0.00 | 0.00 | 0.00 | 74 | 1000.0 |
| 20260509192653 | 61 | 153 | 17.0 | 27.0 | 0.00 | 0.00 | 0.00 | 72 | 999.5 |
| 20260509192148 | 62 | 180 | 17.0 | 26.0 | 0.00 | 0.00 | 0.00 | 71 | 999.5 |
| 20260509191637 | 63 | 155 | 17.0 | 28.0 | 0.00 | 0.00 | 0.00 | 70 | 999.5 |
| 20260509191136 | 64 | 146 | 17.0 | 28.0 | 0.00 | 0.00 | 0.00 | 69 | 1000.2 |
| 20260509190625 | 64 | 163 | 19.0 | 29.0 | 0.00 | 0.00 | 0.00 | 71 | 1000.2 |
| 20260509190124 | 62 | 176 | 21.0 | 31.0 | 0.00 | 0.00 | 0.00 | 72 | 1000.2 |
| 20260509185618 | 62 | 205 | 21.0 | 31.0 | 0.00 | 0.00 | 0.00 | 71 | 1000.4 |
| 20260509185111 | 62 | 186 | 20.0 | 32.0 | 0.00 | 0.00 | 0.00 | 68 | 1000.4 |
| 20260509184606 | 63 | 188 | 20.0 | 32.0 | 0.00 | 0.00 | 0.00 | 65 | 1000.2 |
| 20260509184055 | 64 | 181 | 18.0 | 27.0 | 0.00 | 0.00 | 0.00 | 61 | 1000.2 |
| 20260509183554 | 65 | 173 | 20.0 | 29.0 | 0.00 | 0.00 | 0.00 | 62 | 1000.2 |
| 20260509183043 | 64 | 147 | 21.0 | 29.0 | 0.00 | 0.00 | 0.00 | 65 | 1000.5 |
| 20260509182541 | 63 | 132 | 18.0 | 29.0 | 0.00 | 0.00 | 0.00 | 65 | 1000.5 |
| 20260509182036 | 62 | 177 | 17.0 | 26.0 | 0.00 | 0.00 | 0.00 | 63 | 1000.5 |
| 20260509181525 | 61 | 184 | 18.0 | 26.0 | 0.00 | 0.00 | 0.00 | 64 | 1001.0 |
| 20260509181024 | 61 | 179 | 19.0 | 29.0 | 0.00 | 0.00 | 0.00 | 63 | 1001.0 |
| 20260509180518 | 60 | 185 | 23.0 | 35.0 | 0.00 | 0.00 | 0.00 | 62 | 1001.0 |
| 20260509180013 | 60 | 177 | 24.0 | 35.0 | 0.00 | 0.00 | 0.00 | 61 | 1001.0 |
| 20260509175501 | 61 | 161 | 23.0 | 33.0 | 0.00 | 0.00 | 0.00 | 62 | 1001.0 |
| 20260509174956 | 61 | 205 | 24.0 | 38.0 | 0.00 | 0.00 | 0.00 | 59 | 1001.0 |
| 20260509174454 | 62 | 210 | 25.0 | 38.0 | 0.00 | 0.00 | 0.00 | 55 | 1001.1 |
| 20260509173947 | 63 | 184 | 22.0 | 35.0 | 0.00 | 0.00 | 0.00 | 58 | 1001.1 |
| 20260509173443 | 62 | 159 | 19.0 | 32.0 | 0.00 | 0.00 | 0.00 | 67 | 1001.1 |
| 20260509172936 | 61 | 192 | 15.0 | 27.0 | 0.00 | 0.00 | 0.00 | 66 | 1001.1 |
| 20260509172430 | 60 | 189 | 14.0 | 26.0 | 0.00 | 0.00 | 0.00 | 68 | 1001.1 |
| 20260509171919 | 60 | 179 | 15.0 | 26.0 | 0.00 | 0.00 | 0.00 | 69 | 1001.1 |
| 20260509171413 | 59 | 170 | 16.0 | 26.0 | 0.00 | 0.00 | 0.00 | 73 | 1001.3 |
| 20260509170912 | 58 | 154 | 18.0 | 27.0 | 0.00 | 0.00 | 0.00 | 76 | 1001.3 |
| 20260509170628 | 58 | 205 | 17.0 | 27.0 | 0.00 | 0.00 | 0.00 | 72 | 1001.3 |
| 20260509165901 | 59 | 152 | 19.0 | 27.0 | 0.00 | 0.00 | 0.00 | 70 | 1001.6 |
| 20260509165355 | 59 | 177 | 19.0 | 29.0 | 0.00 | 0.00 | 0.00 | 69 | 1001.6 |
| 20260509164843 | 60 | 184 | 16.0 | 29.0 | 0.00 | 0.00 | 0.00 | 70 | 1001.6 |
| 20260509164338 | 60 | 170 | 17.0 | 24.0 | 0.00 | 0.00 | 0.00 | 67 | 1001.6 |
| 20260509163836 | 61 | 179 | 19.0 | 25.0 | 0.00 | 0.00 | 0.00 | 69 | 1001.6 |
| 20260509163331 | 62 | 155 | 18.0 | 26.0 | 0.00 | 0.00 | 0.00 | 70 | 1001.6 |
| 20260509162824 | 61 | 163 | 16.0 | 26.0 | 0.00 | 0.00 | 0.00 | 73 | 1001.8 |
| 20260509162318 | 60 | 173 | 16.0 | 27.0 | 0.00 | 0.00 | 0.00 | 73 | 1001.8 |
| 20260509162029 | 58 | 162 | 17.0 | 27.0 | 0.00 | 0.00 | 0.00 | 76 | 1001.8 |
| 20260509161301 | 59 | 163 | 16.0 | 28.0 | 0.00 | 0.00 | 0.00 | 73 | 1002.8 |
| 20260509160756 | 59 | 154 | 17.0 | 28.0 | 0.00 | 0.00 | 0.00 | 71 | 1002.8 |
| 20260509160254 | 60 | 165 | 17.0 | 25.0 | 0.00 | 0.00 | 0.00 | 72 | 1002.8 |
| 20260509155743 | 60 | 157 | 14.0 | 25.0 | 0.00 | 0.00 | 0.00 | 74 | 1002.8 |
| 20260509155505 | 60 | 156 | 13.0 | 21.0 | 0.00 | 0.00 | 0.00 | 72 | 1002.8 |
| 20260509154731 | 60 | 159 | 14.0 | 21.0 | 0.00 | 0.00 | 0.00 | 74 | 1002.8 |
| 20260509154230 | 59 | 165 | 15.0 | 21.0 | 0.00 | 0.00 | 0.00 | 77 | 1003.4 |
| 20260509153724 | 58 | 157 | 14.0 | 21.0 | 0.00 | 0.00 | 0.00 | 76 | 1003.4 |
| 20260509153213 | 58 | 160 | 13.0 | 18.0 | 0.00 | 0.00 | 0.00 | 74 | 1003.4 |
| 20260509152712 | 58 | 185 | 13.0 | 18.0 | 0.00 | 0.00 | 0.00 | 75 | 1003.8 |
| 20260509152201 | 57 | 151 | 12.0 | 18.0 | 0.00 | 0.00 | 0.00 | 76 | 1003.8 |
| 20260509152143 | 56 | 172 | 12.0 | 19.0 | 0.00 | 0.00 | 0.00 | 75 | 1003.8 |
| 20260509151415 | 56 | 178 | 12.0 | 19.0 | 0.00 | 0.00 | 0.00 | 75 | 1004.1 |
| 20260509150647 | 55 | 191 | 13.0 | 19.0 | 0.00 | 0.00 | 0.00 | 75 | 1004.1 |
| 20260509150137 | 56 | 183 | 14.0 | 19.0 | 0.00 | 0.00 | 0.00 | 74 | 1003.7 |
| 20260509145525 | 56 | 173 | 14.0 | 20.0 | 0.00 | 0.00 | 0.00 | 74 | 1003.7 |
| 20260509145024 | 57 | 173 | 13.0 | 18.0 | 0.00 | 0.00 | 0.00 | 73 | 1003.7 |
| 20260509144517 | 57 | 164 | 12.0 | 18.0 | 0.00 | 0.00 | 0.00 | 72 | 1003.6 |
| 20260509144231 | 57 | 176 | 12.0 | 16.0 | 0.00 | 0.00 | 0.00 | 73 | 1003.6 |
| 20260509143506 | 56 | 188 | 11.0 | 17.0 | 0.00 | 0.00 | 0.00 | 73 | 1003.6 |
| 20260509142956 | 56 | 179 | 11.0 | 17.0 | 0.00 | 0.00 | 0.00 | 74 | 1003.7 |
| 20260509142454 | 56 | 184 | 12.0 | 17.0 | 0.00 | 0.00 | 0.00 | 74 | 1003.7 |